sensor_id;sensor_type;location;lat;lon;timestamp;P1;durP1;ratioP1;P2;durP2;ratioP2
80322;SDS011;69636;52.372;13.610;2024-01-30T00:06:31;10.35;;;6.22;;
80322;SDS011;69636;52.372;13.610;2024-01-30T00:08:58;13.00;;;9.57;;
80322;SDS011;69636;52.372;13.610;2024-01-30T00:11:25;11.15;;;8.00;;
80322;SDS011;69636;52.372;13.610;2024-01-30T00:13:53;10.15;;;6.55;;
80322;SDS011;69636;52.372;13.610;2024-01-30T00:16:21;11.52;;;8.40;;
80322;SDS011;69636;52.372;13.610;2024-01-30T00:18:49;10.88;;;9.80;;
80322;SDS011;69636;52.372;13.610;2024-01-30T00:21:17;10.88;;;8.15;;
80322;SDS011;69636;52.372;13.610;2024-01-30T00:23:44;12.98;;;11.77;;
80322;SDS011;69636;52.372;13.610;2024-01-30T00:26:12;11.30;;;7.78;;
80322;SDS011;69636;52.372;13.610;2024-01-30T00:28:39;10.65;;;7.60;;
80322;SDS011;69636;52.372;13.610;2024-01-30T00:31:08;10.95;;;7.75;;
80322;SDS011;69636;52.372;13.610;2024-01-30T00:33:38;11.52;;;7.93;;
80322;SDS011;69636;52.372;13.610;2024-01-30T00:36:05;12.20;;;8.23;;
80322;SDS011;69636;52.372;13.610;2024-01-30T00:38:33;11.70;;;7.90;;
80322;SDS011;69636;52.372;13.610;2024-01-30T00:41:00;11.00;;;7.80;;
80322;SDS011;69636;52.372;13.610;2024-01-30T00:43:28;11.52;;;9.55;;
80322;SDS011;69636;52.372;13.610;2024-01-30T00:45:55;11.93;;;10.75;;
80322;SDS011;69636;52.372;13.610;2024-01-30T00:48:23;11.07;;;7.30;;
80322;SDS011;69636;52.372;13.610;2024-01-30T00:50:51;9.70;;;7.70;;
80322;SDS011;69636;52.372;13.610;2024-01-30T00:53:19;12.15;;;7.32;;
80322;SDS011;69636;52.372;13.610;2024-01-30T00:55:46;10.98;;;8.50;;
80322;SDS011;69636;52.372;13.610;2024-01-30T00:58:14;9.98;;;7.60;;
80322;SDS011;69636;52.372;13.610;2024-01-30T01:00:41;11.75;;;7.35;;
80322;SDS011;69636;52.372;13.610;2024-01-30T01:03:08;9.07;;;6.63;;
80322;SDS011;69636;52.372;13.610;2024-01-30T01:05:36;9.93;;;6.68;;
80322;SDS011;69636;52.372;13.610;2024-01-30T01:08:05;10.18;;;7.45;;
80322;SDS011;69636;52.372;13.610;2024-01-30T01:10:33;10.07;;;6.90;;
80322;SDS011;69636;52.372;13.610;2024-01-30T01:13:00;8.70;;;6.15;;
80322;SDS011;69636;52.372;13.610;2024-01-30T01:15:27;11.60;;;6.90;;
80322;SDS011;69636;52.372;13.610;2024-01-30T01:17:56;9.30;;;6.65;;
80322;SDS011;69636;52.372;13.610;2024-01-30T01:20:24;9.82;;;7.63;;
80322;SDS011;69636;52.372;13.610;2024-01-30T01:22:51;12.55;;;11.30;;
80322;SDS011;69636;52.372;13.610;2024-01-30T01:25:20;10.38;;;6.22;;
80322;SDS011;69636;52.372;13.610;2024-01-30T01:27:47;12.23;;;8.90;;
80322;SDS011;69636;52.372;13.610;2024-01-30T01:30:15;10.02;;;7.60;;
80322;SDS011;69636;52.372;13.610;2024-01-30T01:32:42;11.95;;;9.05;;
80322;SDS011;69636;52.372;13.610;2024-01-30T01:35:09;13.85;;;10.88;;
80322;SDS011;69636;52.372;13.610;2024-01-30T01:37:37;11.30;;;8.55;;
80322;SDS011;69636;52.372;13.610;2024-01-30T01:40:12;11.45;;;9.82;;
80322;SDS011;69636;52.372;13.610;2024-01-30T01:42:42;12.07;;;8.68;;
80322;SDS011;69636;52.372;13.610;2024-01-30T01:45:09;9.35;;;6.65;;
80322;SDS011;69636;52.372;13.610;2024-01-30T01:47:36;12.60;;;7.97;;
80322;SDS011;69636;52.372;13.610;2024-01-30T01:50:04;12.30;;;8.80;;
80322;SDS011;69636;52.372;13.610;2024-01-30T01:52:32;8.00;;;7.00;;
80322;SDS011;69636;52.372;13.610;2024-01-30T01:55:01;11.20;;;9.57;;
80322;SDS011;69636;52.372;13.610;2024-01-30T01:57:28;12.10;;;10.98;;
80322;SDS011;69636;52.372;13.610;2024-01-30T01:59:58;8.70;;;7.70;;
80322;SDS011;69636;52.372;13.610;2024-01-30T02:02:25;12.82;;;9.35;;
80322;SDS011;69636;52.372;13.610;2024-01-30T02:04:57;11.65;;;8.43;;
80322;SDS011;69636;52.372;13.610;2024-01-30T02:07:24;11.43;;;8.05;;
80322;SDS011;69636;52.372;13.610;2024-01-30T02:09:52;10.35;;;7.72;;
80322;SDS011;69636;52.372;13.610;2024-01-30T02:12:19;12.65;;;11.35;;
80322;SDS011;69636;52.372;13.610;2024-01-30T02:14:47;13.02;;;11.57;;
80322;SDS011;69636;52.372;13.610;2024-01-30T02:17:16;10.43;;;9.07;;
80322;SDS011;69636;52.372;13.610;2024-01-30T02:19:43;10.40;;;7.25;;
80322;SDS011;69636;52.372;13.610;2024-01-30T02:22:12;12.52;;;8.82;;
80322;SDS011;69636;52.372;13.610;2024-01-30T02:24:40;11.88;;;8.43;;
80322;SDS011;69636;52.372;13.610;2024-01-30T02:27:08;10.27;;;9.25;;
80322;SDS011;69636;52.372;13.610;2024-01-30T02:29:35;10.55;;;9.55;;
80322;SDS011;69636;52.372;13.610;2024-01-30T02:32:03;9.57;;;7.13;;
80322;SDS011;69636;52.372;13.610;2024-01-30T02:34:30;12.27;;;8.77;;
80322;SDS011;69636;52.372;13.610;2024-01-30T02:36:58;10.57;;;7.85;;
80322;SDS011;69636;52.372;13.610;2024-01-30T02:39:27;13.93;;;12.57;;
80322;SDS011;69636;52.372;13.610;2024-01-30T02:44:21;12.48;;;8.48;;
80322;SDS011;69636;52.372;13.610;2024-01-30T02:46:48;9.70;;;7.60;;
80322;SDS011;69636;52.372;13.610;2024-01-30T02:49:15;12.05;;;10.82;;
80322;SDS011;69636;52.372;13.610;2024-01-30T02:51:43;13.48;;;12.10;;
80322;SDS011;69636;52.372;13.610;2024-01-30T02:54:10;12.23;;;7.72;;
80322;SDS011;69636;52.372;13.610;2024-01-30T02:56:39;11.98;;;8.85;;
80322;SDS011;69636;52.372;13.610;2024-01-30T03:01:34;11.40;;;9.00;;
80322;SDS011;69636;52.372;13.610;2024-01-30T03:04:10;11.23;;;8.10;;
80322;SDS011;69636;52.372;13.610;2024-01-30T03:06:38;12.02;;;9.18;;
80322;SDS011;69636;52.372;13.610;2024-01-30T03:09:06;11.95;;;8.27;;
80322;SDS011;69636;52.372;13.610;2024-01-30T03:11:33;12.02;;;10.27;;
80322;SDS011;69636;52.372;13.610;2024-01-30T03:14:02;13.40;;;10.00;;
80322;SDS011;69636;52.372;13.610;2024-01-30T03:16:29;10.70;;;8.45;;
80322;SDS011;69636;52.372;13.610;2024-01-30T03:18:56;11.68;;;6.78;;
80322;SDS011;69636;52.372;13.610;2024-01-30T03:21:24;11.90;;;9.30;;
80322;SDS011;69636;52.372;13.610;2024-01-30T03:23:51;9.00;;;7.97;;
80322;SDS011;69636;52.372;13.610;2024-01-30T03:26:19;11.23;;;8.50;;
80322;SDS011;69636;52.372;13.610;2024-01-30T03:28:46;12.98;;;8.95;;
80322;SDS011;69636;52.372;13.610;2024-01-30T03:31:15;12.20;;;8.27;;
80322;SDS011;69636;52.372;13.610;2024-01-30T03:33:43;13.02;;;8.90;;
80322;SDS011;69636;52.372;13.610;2024-01-30T03:36:10;10.30;;;9.00;;
80322;SDS011;69636;52.372;13.610;2024-01-30T03:38:38;11.68;;;8.57;;
80322;SDS011;69636;52.372;13.610;2024-01-30T03:41:07;10.25;;;7.60;;
80322;SDS011;69636;52.372;13.610;2024-01-30T03:43:34;11.90;;;9.18;;
80322;SDS011;69636;52.372;13.610;2024-01-30T03:46:01;11.30;;;7.45;;
80322;SDS011;69636;52.372;13.610;2024-01-30T03:48:31;9.88;;;7.15;;
80322;SDS011;69636;52.372;13.610;2024-01-30T03:53:25;9.98;;;8.43;;
80322;SDS011;69636;52.372;13.610;2024-01-30T03:55:53;12.75;;;8.63;;
80322;SDS011;69636;52.372;13.610;2024-01-30T03:58:20;11.27;;;9.02;;
80322;SDS011;69636;52.372;13.610;2024-01-30T04:00:48;14.10;;;10.40;;
80322;SDS011;69636;52.372;13.610;2024-01-30T04:03:15;11.80;;;10.30;;
80322;SDS011;69636;52.372;13.610;2024-01-30T04:05:44;10.68;;;8.00;;
80322;SDS011;69636;52.372;13.610;2024-01-30T04:08:12;12.15;;;8.48;;
80322;SDS011;69636;52.372;13.610;2024-01-30T04:10:39;11.85;;;8.73;;
80322;SDS011;69636;52.372;13.610;2024-01-30T04:13:07;15.35;;;13.98;;
80322;SDS011;69636;52.372;13.610;2024-01-30T04:15:38;12.73;;;10.43;;
80322;SDS011;69636;52.372;13.610;2024-01-30T04:18:06;12.77;;;9.10;;
80322;SDS011;69636;52.372;13.610;2024-01-30T04:20:33;13.57;;;8.98;;
80322;SDS011;69636;52.372;13.610;2024-01-30T04:23:02;12.13;;;10.52;;
80322;SDS011;69636;52.372;13.610;2024-01-30T04:25:29;13.23;;;8.82;;
80322;SDS011;69636;52.372;13.610;2024-01-30T04:27:57;9.98;;;8.93;;
80322;SDS011;69636;52.372;13.610;2024-01-30T04:30:24;12.68;;;11.43;;
80322;SDS011;69636;52.372;13.610;2024-01-30T04:32:51;10.48;;;8.25;;
80322;SDS011;69636;52.372;13.610;2024-01-30T04:35:19;11.95;;;8.85;;
80322;SDS011;69636;52.372;13.610;2024-01-30T04:37:46;10.13;;;8.73;;
80322;SDS011;69636;52.372;13.610;2024-01-30T04:40:15;13.20;;;11.82;;
80322;SDS011;69636;52.372;13.610;2024-01-30T04:42:43;18.83;;;17.23;;
80322;SDS011;69636;52.372;13.610;2024-01-30T04:45:10;11.88;;;7.80;;
80322;SDS011;69636;52.372;13.610;2024-01-30T04:47:37;10.93;;;8.13;;
80322;SDS011;69636;52.372;13.610;2024-01-30T04:50:05;13.88;;;8.50;;
80322;SDS011;69636;52.372;13.610;2024-01-30T04:52:35;13.48;;;10.85;;
80322;SDS011;69636;52.372;13.610;2024-01-30T04:55:03;12.32;;;7.68;;
80322;SDS011;69636;52.372;13.610;2024-01-30T04:57:33;11.07;;;9.50;;
80322;SDS011;69636;52.372;13.610;2024-01-30T05:00:00;12.68;;;8.32;;
80322;SDS011;69636;52.372;13.610;2024-01-30T05:02:28;10.65;;;7.35;;
80322;SDS011;69636;52.372;13.610;2024-01-30T05:04:55;11.77;;;8.80;;
80322;SDS011;69636;52.372;13.610;2024-01-30T05:07:23;12.30;;;9.95;;
80322;SDS011;69636;52.372;13.610;2024-01-30T05:09:52;13.60;;;7.88;;
80322;SDS011;69636;52.372;13.610;2024-01-30T05:12:22;13.88;;;12.52;;
80322;SDS011;69636;52.372;13.610;2024-01-30T05:14:51;11.68;;;8.00;;
80322;SDS011;69636;52.372;13.610;2024-01-30T05:17:18;11.52;;;8.55;;
80322;SDS011;69636;52.372;13.610;2024-01-30T05:19:45;11.65;;;9.52;;
80322;SDS011;69636;52.372;13.610;2024-01-30T05:22:13;13.77;;;9.18;;
80322;SDS011;69636;52.372;13.610;2024-01-30T05:24:40;14.30;;;10.35;;
80322;SDS011;69636;52.372;13.610;2024-01-30T05:27:08;12.95;;;11.30;;
80322;SDS011;69636;52.372;13.610;2024-01-30T05:29:35;14.00;;;8.18;;
80322;SDS011;69636;52.372;13.610;2024-01-30T05:32:04;12.98;;;9.30;;
80322;SDS011;69636;52.372;13.610;2024-01-30T05:34:33;11.43;;;8.35;;
80322;SDS011;69636;52.372;13.610;2024-01-30T05:37:01;12.73;;;8.35;;
80322;SDS011;69636;52.372;13.610;2024-01-30T05:39:28;14.63;;;8.18;;
80322;SDS011;69636;52.372;13.610;2024-01-30T05:41:55;13.73;;;8.88;;
80322;SDS011;69636;52.372;13.610;2024-01-30T05:44:23;14.00;;;10.73;;
80322;SDS011;69636;52.372;13.610;2024-01-30T05:46:50;10.38;;;8.13;;
80322;SDS011;69636;52.372;13.610;2024-01-30T05:49:19;15.13;;;13.63;;
80322;SDS011;69636;52.372;13.610;2024-01-30T05:51:46;14.40;;;8.55;;
80322;SDS011;69636;52.372;13.610;2024-01-30T05:54:14;12.60;;;9.77;;
80322;SDS011;69636;52.372;13.610;2024-01-30T05:56:43;13.43;;;11.88;;
80322;SDS011;69636;52.372;13.610;2024-01-30T05:59:11;12.15;;;10.35;;
80322;SDS011;69636;52.372;13.610;2024-01-30T06:01:44;16.60;;;9.93;;
80322;SDS011;69636;52.372;13.610;2024-01-30T06:04:12;12.88;;;7.78;;
80322;SDS011;69636;52.372;13.610;2024-01-30T06:06:41;14.68;;;9.30;;
80322;SDS011;69636;52.372;13.610;2024-01-30T06:09:09;12.48;;;10.35;;
80322;SDS011;69636;52.372;13.610;2024-01-30T06:11:36;11.90;;;9.50;;
80322;SDS011;69636;52.372;13.610;2024-01-30T06:14:03;13.48;;;9.88;;
80322;SDS011;69636;52.372;13.610;2024-01-30T06:16:31;12.95;;;8.98;;
80322;SDS011;69636;52.372;13.610;2024-01-30T06:18:58;11.90;;;9.32;;
80322;SDS011;69636;52.372;13.610;2024-01-30T06:21:26;13.68;;;10.52;;
80322;SDS011;69636;52.372;13.610;2024-01-30T06:23:54;12.50;;;9.13;;
80322;SDS011;69636;52.372;13.610;2024-01-30T06:28:49;11.55;;;7.50;;
80322;SDS011;69636;52.372;13.610;2024-01-30T06:31:16;14.82;;;13.25;;
80322;SDS011;69636;52.372;13.610;2024-01-30T06:33:46;12.77;;;7.13;;
80322;SDS011;69636;52.372;13.610;2024-01-30T06:36:13;12.65;;;10.05;;
80322;SDS011;69636;52.372;13.610;2024-01-30T06:38:41;17.52;;;13.38;;
80322;SDS011;69636;52.372;13.610;2024-01-30T06:41:09;12.40;;;11.15;;
80322;SDS011;69636;52.372;13.610;2024-01-30T06:43:37;13.50;;;11.88;;
80322;SDS011;69636;52.372;13.610;2024-01-30T06:46:04;12.02;;;7.75;;
80322;SDS011;69636;52.372;13.610;2024-01-30T06:48:31;14.13;;;10.15;;
80322;SDS011;69636;52.372;13.610;2024-01-30T06:50:59;12.57;;;9.98;;
80322;SDS011;69636;52.372;13.610;2024-01-30T06:53:26;12.52;;;10.43;;
80322;SDS011;69636;52.372;13.610;2024-01-30T06:55:53;14.45;;;10.48;;
80322;SDS011;69636;52.372;13.610;2024-01-30T06:58:22;11.73;;;8.27;;
80322;SDS011;69636;52.372;13.610;2024-01-30T07:00:49;16.83;;;10.80;;
80322;SDS011;69636;52.372;13.610;2024-01-30T07:03:17;15.18;;;11.65;;
80322;SDS011;69636;52.372;13.610;2024-01-30T07:05:44;15.88;;;11.48;;
80322;SDS011;69636;52.372;13.610;2024-01-30T07:08:12;14.60;;;10.13;;
80322;SDS011;69636;52.372;13.610;2024-01-30T07:10:39;16.27;;;11.38;;
80322;SDS011;69636;52.372;13.610;2024-01-30T07:13:06;14.48;;;10.27;;
80322;SDS011;69636;52.372;13.610;2024-01-30T07:15:35;16.40;;;9.27;;
80322;SDS011;69636;52.372;13.610;2024-01-30T07:18:03;20.63;;;15.25;;
80322;SDS011;69636;52.372;13.610;2024-01-30T07:20:31;20.73;;;12.98;;
80322;SDS011;69636;52.372;13.610;2024-01-30T07:22:58;16.13;;;11.00;;
80322;SDS011;69636;52.372;13.610;2024-01-30T07:25:25;18.38;;;14.02;;
80322;SDS011;69636;52.372;13.610;2024-01-30T07:27:53;19.20;;;14.25;;
80322;SDS011;69636;52.372;13.610;2024-01-30T07:30:20;18.45;;;12.35;;
80322;SDS011;69636;52.372;13.610;2024-01-30T07:32:49;20.80;;;12.18;;
80322;SDS011;69636;52.372;13.610;2024-01-30T07:35:17;15.45;;;10.23;;
80322;SDS011;69636;52.372;13.610;2024-01-30T07:37:44;13.75;;;8.68;;
80322;SDS011;69636;52.372;13.610;2024-01-30T07:40:12;16.75;;;11.48;;
80322;SDS011;69636;52.372;13.610;2024-01-30T07:42:39;17.90;;;12.30;;
80322;SDS011;69636;52.372;13.610;2024-01-30T07:45:07;14.55;;;10.63;;
80322;SDS011;69636;52.372;13.610;2024-01-30T07:47:34;12.73;;;10.05;;
80322;SDS011;69636;52.372;13.610;2024-01-30T07:50:04;14.10;;;9.65;;
80322;SDS011;69636;52.372;13.610;2024-01-30T07:52:33;16.70;;;12.90;;
80322;SDS011;69636;52.372;13.610;2024-01-30T07:55:00;16.00;;;9.95;;
80322;SDS011;69636;52.372;13.610;2024-01-30T07:57:28;16.65;;;10.75;;
80322;SDS011;69636;52.372;13.610;2024-01-30T07:59:55;14.95;;;9.68;;
80322;SDS011;69636;52.372;13.610;2024-01-30T08:02:22;18.70;;;10.93;;
80322;SDS011;69636;52.372;13.610;2024-01-30T08:04:50;14.73;;;10.73;;
80322;SDS011;69636;52.372;13.610;2024-01-30T08:07:18;17.95;;;13.07;;
80322;SDS011;69636;52.372;13.610;2024-01-30T08:09:46;14.43;;;10.90;;
80322;SDS011;69636;52.372;13.610;2024-01-30T08:12:13;14.90;;;10.73;;
80322;SDS011;69636;52.372;13.610;2024-01-30T08:14:41;13.13;;;9.68;;
80322;SDS011;69636;52.372;13.610;2024-01-30T08:17:08;18.08;;;16.38;;
80322;SDS011;69636;52.372;13.610;2024-01-30T08:19:35;13.23;;;9.40;;
80322;SDS011;69636;52.372;13.610;2024-01-30T08:22:03;16.00;;;11.30;;
80322;SDS011;69636;52.372;13.610;2024-01-30T08:24:32;14.68;;;11.30;;
80322;SDS011;69636;52.372;13.610;2024-01-30T08:26:59;20.30;;;11.80;;
80322;SDS011;69636;52.372;13.610;2024-01-30T08:29:26;20.63;;;13.15;;
80322;SDS011;69636;52.372;13.610;2024-01-30T08:31:54;16.38;;;10.68;;
80322;SDS011;69636;52.372;13.610;2024-01-30T08:34:21;16.90;;;10.60;;
80322;SDS011;69636;52.372;13.610;2024-01-30T08:36:49;13.48;;;11.60;;
80322;SDS011;69636;52.372;13.610;2024-01-30T08:39:16;13.88;;;10.40;;
80322;SDS011;69636;52.372;13.610;2024-01-30T08:41:45;15.07;;;11.90;;
80322;SDS011;69636;52.372;13.610;2024-01-30T08:44:12;18.15;;;14.15;;
80322;SDS011;69636;52.372;13.610;2024-01-30T08:46:40;14.15;;;11.55;;
80322;SDS011;69636;52.372;13.610;2024-01-30T08:49:07;13.55;;;10.63;;
80322;SDS011;69636;52.372;13.610;2024-01-30T08:51:35;15.25;;;10.23;;
80322;SDS011;69636;52.372;13.610;2024-01-30T08:54:03;14.93;;;8.65;;
80322;SDS011;69636;52.372;13.610;2024-01-30T08:56:30;13.68;;;9.98;;
80322;SDS011;69636;52.372;13.610;2024-01-30T08:58:59;12.98;;;9.85;;
80322;SDS011;69636;52.372;13.610;2024-01-30T09:01:26;15.45;;;9.90;;
80322;SDS011;69636;52.372;13.610;2024-01-30T09:03:54;13.15;;;10.02;;
80322;SDS011;69636;52.372;13.610;2024-01-30T09:06:21;11.60;;;7.93;;
80322;SDS011;69636;52.372;13.610;2024-01-30T09:08:48;13.82;;;8.90;;
80322;SDS011;69636;52.372;13.610;2024-01-30T09:11:16;12.27;;;7.57;;
80322;SDS011;69636;52.372;13.610;2024-01-30T09:13:43;13.20;;;7.35;;
80322;SDS011;69636;52.372;13.610;2024-01-30T09:16:12;13.15;;;8.80;;
80322;SDS011;69636;52.372;13.610;2024-01-30T09:18:39;14.45;;;8.98;;
80322;SDS011;69636;52.372;13.610;2024-01-30T09:21:06;12.55;;;7.65;;
80322;SDS011;69636;52.372;13.610;2024-01-30T09:23:34;11.13;;;8.07;;
80322;SDS011;69636;52.372;13.610;2024-01-30T09:26:01;11.50;;;7.68;;
80322;SDS011;69636;52.372;13.610;2024-01-30T09:28:28;12.75;;;8.63;;
80322;SDS011;69636;52.372;13.610;2024-01-30T09:30:56;11.90;;;7.53;;
80322;SDS011;69636;52.372;13.610;2024-01-30T09:33:25;10.23;;;8.63;;
80322;SDS011;69636;52.372;13.610;2024-01-30T09:35:52;10.27;;;6.85;;
80322;SDS011;69636;52.372;13.610;2024-01-30T09:38:19;10.57;;;7.13;;
80322;SDS011;69636;52.372;13.610;2024-01-30T09:40:48;10.55;;;6.80;;
80322;SDS011;69636;52.372;13.610;2024-01-30T09:43:21;10.75;;;7.53;;
80322;SDS011;69636;52.372;13.610;2024-01-30T09:45:53;10.48;;;6.22;;
80322;SDS011;69636;52.372;13.610;2024-01-30T09:48:22;10.95;;;6.78;;
80322;SDS011;69636;52.372;13.610;2024-01-30T09:50:51;10.98;;;7.00;;
80322;SDS011;69636;52.372;13.610;2024-01-30T09:53:20;10.50;;;9.02;;
80322;SDS011;69636;52.372;13.610;2024-01-30T09:55:49;8.88;;;5.80;;
80322;SDS011;69636;52.372;13.610;2024-01-30T10:00:44;12.38;;;7.05;;
80322;SDS011;69636;52.372;13.610;2024-01-30T10:03:12;12.43;;;8.93;;
80322;SDS011;69636;52.372;13.610;2024-01-30T10:05:39;11.50;;;8.25;;
80322;SDS011;69636;52.372;13.610;2024-01-30T10:08:08;12.90;;;8.82;;
80322;SDS011;69636;52.372;13.610;2024-01-30T10:10:36;10.82;;;6.97;;
80322;SDS011;69636;52.372;13.610;2024-01-30T10:13:03;9.35;;;6.13;;
80322;SDS011;69636;52.372;13.610;2024-01-30T10:15:31;9.55;;;5.57;;
80322;SDS011;69636;52.372;13.610;2024-01-30T10:17:59;9.27;;;6.15;;
80322;SDS011;69636;52.372;13.610;2024-01-30T10:20:26;8.45;;;5.93;;
80322;SDS011;69636;52.372;13.610;2024-01-30T10:22:54;8.48;;;6.60;;
80322;SDS011;69636;52.372;13.610;2024-01-30T10:25:22;8.18;;;6.40;;
80322;SDS011;69636;52.372;13.610;2024-01-30T10:27:52;9.10;;;5.95;;
80322;SDS011;69636;52.372;13.610;2024-01-30T10:30:19;9.27;;;5.93;;
80322;SDS011;69636;52.372;13.610;2024-01-30T10:32:47;7.45;;;5.97;;
80322;SDS011;69636;52.372;13.610;2024-01-30T10:35:15;7.95;;;5.15;;
80322;SDS011;69636;52.372;13.610;2024-01-30T10:37:43;9.63;;;8.75;;
80322;SDS011;69636;52.372;13.610;2024-01-30T10:40:12;10.45;;;6.75;;
80322;SDS011;69636;52.372;13.610;2024-01-30T10:42:43;7.95;;;5.45;;
80322;SDS011;69636;52.372;13.610;2024-01-30T10:45:11;8.75;;;6.00;;
80322;SDS011;69636;52.372;13.610;2024-01-30T10:47:40;8.85;;;6.65;;
80322;SDS011;69636;52.372;13.610;2024-01-30T10:50:10;8.63;;;6.53;;
80322;SDS011;69636;52.372;13.610;2024-01-30T10:52:38;7.68;;;6.30;;
80322;SDS011;69636;52.372;13.610;2024-01-30T10:55:06;9.30;;;5.55;;
80322;SDS011;69636;52.372;13.610;2024-01-30T10:57:35;9.73;;;6.60;;
80322;SDS011;69636;52.372;13.610;2024-01-30T11:00:04;7.97;;;6.22;;
80322;SDS011;69636;52.372;13.610;2024-01-30T11:02:36;7.82;;;5.82;;
80322;SDS011;69636;52.372;13.610;2024-01-30T11:05:05;7.57;;;5.88;;
80322;SDS011;69636;52.372;13.610;2024-01-30T11:07:33;10.30;;;5.75;;
80322;SDS011;69636;52.372;13.610;2024-01-30T11:10:01;7.68;;;6.35;;
80322;SDS011;69636;52.372;13.610;2024-01-30T11:12:29;9.40;;;7.07;;
80322;SDS011;69636;52.372;13.610;2024-01-30T11:15:06;10.20;;;6.60;;
80322;SDS011;69636;52.372;13.610;2024-01-30T11:17:41;10.85;;;8.63;;
80322;SDS011;69636;52.372;13.610;2024-01-30T11:20:14;8.05;;;6.07;;
80322;SDS011;69636;52.372;13.610;2024-01-30T11:22:42;10.38;;;5.43;;
80322;SDS011;69636;52.372;13.610;2024-01-30T11:25:12;7.85;;;6.00;;
80322;SDS011;69636;52.372;13.610;2024-01-30T11:27:41;7.95;;;5.47;;
80322;SDS011;69636;52.372;13.610;2024-01-30T11:30:10;9.20;;;8.38;;
80322;SDS011;69636;52.372;13.610;2024-01-30T11:32:38;6.57;;;5.07;;
80322;SDS011;69636;52.372;13.610;2024-01-30T11:35:05;9.77;;;5.65;;
80322;SDS011;69636;52.372;13.610;2024-01-30T11:37:33;9.35;;;6.53;;
80322;SDS011;69636;52.372;13.610;2024-01-30T11:40:04;9.93;;;5.93;;
80322;SDS011;69636;52.372;13.610;2024-01-30T11:42:32;9.15;;;5.75;;
80322;SDS011;69636;52.372;13.610;2024-01-30T11:45:03;8.77;;;6.22;;
80322;SDS011;69636;52.372;13.610;2024-01-30T11:47:34;8.48;;;5.88;;
80322;SDS011;69636;52.372;13.610;2024-01-30T11:50:02;8.15;;;6.25;;
80322;SDS011;69636;52.372;13.610;2024-01-30T11:54:57;9.38;;;6.38;;
80322;SDS011;69636;52.372;13.610;2024-01-30T11:57:26;9.35;;;6.35;;
80322;SDS011;69636;52.372;13.610;2024-01-30T11:59:54;9.80;;;6.03;;
80322;SDS011;69636;52.372;13.610;2024-01-30T12:02:21;9.77;;;8.05;;
80322;SDS011;69636;52.372;13.610;2024-01-30T12:04:50;8.65;;;7.07;;
80322;SDS011;69636;52.372;13.610;2024-01-30T12:07:17;8.57;;;6.07;;
80322;SDS011;69636;52.372;13.610;2024-01-30T12:09:51;11.70;;;6.22;;
80322;SDS011;69636;52.372;13.610;2024-01-30T12:12:19;10.23;;;7.65;;
80322;SDS011;69636;52.372;13.610;2024-01-30T12:14:48;8.80;;;6.25;;
80322;SDS011;69636;52.372;13.610;2024-01-30T12:17:22;9.07;;;5.95;;
80322;SDS011;69636;52.372;13.610;2024-01-30T12:20:01;7.88;;;6.35;;
80322;SDS011;69636;52.372;13.610;2024-01-30T12:22:30;10.65;;;6.97;;
80322;SDS011;69636;52.372;13.610;2024-01-30T12:24:57;7.68;;;5.90;;
80322;SDS011;69636;52.372;13.610;2024-01-30T12:27:25;9.27;;;6.22;;
80322;SDS011;69636;52.372;13.610;2024-01-30T12:29:55;9.23;;;6.28;;
80322;SDS011;69636;52.372;13.610;2024-01-30T12:32:23;9.25;;;8.13;;
80322;SDS011;69636;52.372;13.610;2024-01-30T12:34:55;9.15;;;6.53;;
80322;SDS011;69636;52.372;13.610;2024-01-30T12:37:28;10.85;;;7.13;;
80322;SDS011;69636;52.372;13.610;2024-01-30T12:42:23;8.75;;;6.85;;
80322;SDS011;69636;52.372;13.610;2024-01-30T12:44:50;9.50;;;6.47;;
80322;SDS011;69636;52.372;13.610;2024-01-30T12:47:18;11.80;;;6.68;;
80322;SDS011;69636;52.372;13.610;2024-01-30T12:49:49;11.48;;;6.20;;
80322;SDS011;69636;52.372;13.610;2024-01-30T12:52:17;9.15;;;6.53;;
80322;SDS011;69636;52.372;13.610;2024-01-30T12:54:45;9.68;;;6.55;;
80322;SDS011;69636;52.372;13.610;2024-01-30T12:57:13;8.93;;;6.35;;
80322;SDS011;69636;52.372;13.610;2024-01-30T12:59:40;8.30;;;5.55;;
80322;SDS011;69636;52.372;13.610;2024-01-30T13:02:07;9.25;;;8.18;;
80322;SDS011;69636;52.372;13.610;2024-01-30T13:04:35;9.30;;;8.40;;
80322;SDS011;69636;52.372;13.610;2024-01-30T13:07:03;10.77;;;6.97;;
80322;SDS011;69636;52.372;13.610;2024-01-30T13:09:32;12.05;;;6.55;;
80322;SDS011;69636;52.372;13.610;2024-01-30T13:11:59;8.75;;;5.88;;
80322;SDS011;69636;52.372;13.610;2024-01-30T13:14:26;9.43;;;6.35;;
80322;SDS011;69636;52.372;13.610;2024-01-30T13:16:54;7.38;;;6.10;;
80322;SDS011;69636;52.372;13.610;2024-01-30T13:19:21;7.80;;;5.03;;
80322;SDS011;69636;52.372;13.610;2024-01-30T13:21:49;8.23;;;7.40;;
80322;SDS011;69636;52.372;13.610;2024-01-30T13:24:16;10.35;;;5.80;;
80322;SDS011;69636;52.372;13.610;2024-01-30T13:26:45;10.18;;;5.43;;
80322;SDS011;69636;52.372;13.610;2024-01-30T13:29:12;7.00;;;4.88;;
80322;SDS011;69636;52.372;13.610;2024-01-30T13:31:39;8.30;;;5.65;;
80322;SDS011;69636;52.372;13.610;2024-01-30T13:34:07;8.68;;;6.05;;
80322;SDS011;69636;52.372;13.610;2024-01-30T13:36:35;9.30;;;5.40;;
80322;SDS011;69636;52.372;13.610;2024-01-30T13:39:02;7.43;;;5.03;;
80322;SDS011;69636;52.372;13.610;2024-01-30T13:41:30;6.35;;;4.88;;
80322;SDS011;69636;52.372;13.610;2024-01-30T13:43:59;8.35;;;4.50;;
80322;SDS011;69636;52.372;13.610;2024-01-30T13:46:27;6.38;;;4.55;;
80322;SDS011;69636;52.372;13.610;2024-01-30T13:48:54;9.50;;;5.70;;
80322;SDS011;69636;52.372;13.610;2024-01-30T13:51:21;8.57;;;5.75;;
80322;SDS011;69636;52.372;13.610;2024-01-30T13:53:49;9.15;;;8.20;;
80322;SDS011;69636;52.372;13.610;2024-01-30T13:56:16;7.50;;;5.03;;
80322;SDS011;69636;52.372;13.610;2024-01-30T13:58:43;7.05;;;5.40;;
80322;SDS011;69636;52.372;13.610;2024-01-30T14:01:13;7.93;;;5.35;;
80322;SDS011;69636;52.372;13.610;2024-01-30T14:03:40;6.97;;;5.25;;
80322;SDS011;69636;52.372;13.610;2024-01-30T14:06:07;6.97;;;5.13;;
80322;SDS011;69636;52.372;13.610;2024-01-30T14:08:35;8.18;;;5.32;;
80322;SDS011;69636;52.372;13.610;2024-01-30T14:11:02;8.48;;;5.53;;
80322;SDS011;69636;52.372;13.610;2024-01-30T14:13:30;10.80;;;6.22;;
80322;SDS011;69636;52.372;13.610;2024-01-30T14:15:57;7.65;;;5.97;;
80322;SDS011;69636;52.372;13.610;2024-01-30T14:18:26;7.40;;;5.22;;
80322;SDS011;69636;52.372;13.610;2024-01-30T14:20:54;8.82;;;6.03;;
80322;SDS011;69636;52.372;13.610;2024-01-30T14:23:21;6.85;;;5.47;;
80322;SDS011;69636;52.372;13.610;2024-01-30T14:25:49;9.40;;;4.40;;
80322;SDS011;69636;52.372;13.610;2024-01-30T14:28:16;8.25;;;4.88;;
80322;SDS011;69636;52.372;13.610;2024-01-30T14:30:43;9.27;;;6.00;;
80322;SDS011;69636;52.372;13.610;2024-01-30T14:33:11;7.78;;;5.53;;
80322;SDS011;69636;52.372;13.610;2024-01-30T14:35:39;7.18;;;5.13;;
80322;SDS011;69636;52.372;13.610;2024-01-30T14:38:07;8.07;;;5.60;;
80322;SDS011;69636;52.372;13.610;2024-01-30T14:40:34;9.13;;;6.65;;
80322;SDS011;69636;52.372;13.610;2024-01-30T14:43:02;9.27;;;5.75;;
80322;SDS011;69636;52.372;13.610;2024-01-30T14:45:29;8.65;;;7.05;;
80322;SDS011;69636;52.372;13.610;2024-01-30T14:47:57;8.63;;;5.45;;
80322;SDS011;69636;52.372;13.610;2024-01-30T14:50:25;7.85;;;5.68;;